Westmoreland, New Hampshire
Current Conditions -  °F | °C
As of 3:55 PM on Thursday 23 Oct 2014 (Local Time) from KEEN Reporting Station
Overcast Overcast  
Wind Chill: 43°   Ceiling: 1400
Heat Index: 48°   Visibility: 9mi
Dew Point: 43°   Wind: 12mph
Humidity: 82%   Direction: 330°NNW
Pressure: 29.73"   Gusts: 16mph
Location:  42.96°N, 72.44°W
Report Text: KEEN 231955Z AUTO 33010G14KT 9SM OVC014 09/06 A2973 RMK AO1 P0001
Loading
Personal Weather Stations






























Interactive Weather Map
Tropical Storm Tracking
New forecast layout! Learn more

10-Day Weather Forecast

Advertisements
Track Severe Weather on mobile